Comstock Park, MI (49321)

2:30 AM EST on February 10, 2016 (GMT -0500)
Trillium Glen | | Change Station
CLOSE
Current Station
Personal Weather Station
Location: Comstock Park, MI
Elevation: 712 ft
Nearby Weather Stations

Elev 712 ft 43.04 °N, 85.67 °W | Updated 42 seconds ago

Overcast
Overcast
19.8 °F
Feels Like 20 °F
N
0.9
Wind Variable Wind from SW
Gusts 2.5 mph

Today
High -- | Low -- °F
--% Chance of Precip.
Yesterday
High -- | Low -- °F
Precip. -- in
Pressure 29.82 in
Visibility 10.0 miles
Clouds Few 2100 ft
Mostly Cloudy 5500 ft
Overcast 7500 ft
Windchill 20 °F
Dew Point 10 °F
Humidity 66%
Rainfall 0.00 in
Snow Depth Not available.
7:47 AM 6:06 PM
Waxing Crescent, 4% visible
METAR KGRR 100653Z AUTO 32012G19KT 10SM FEW021 BKN055 OVC075 M07/M11 A2978 RMK AO2 SLP097 T10671111
Pressure 29.82 in
Visibility 10.0 miles
Clouds Few 2100 ft
Mostly Cloudy 5500 ft
Overcast 7500 ft
Windchill 20 °F
Dew Point 10 °F
Humidity 66%
Rainfall 0.00 in
Snow Depth Not available.
7:47 AM 6:06 PM
Waxing Crescent, 4% visible
METAR KGRR 100653Z AUTO 32012G19KT 10SM FEW021 BKN055 OVC075 M07/M11 A2978 RMK AO2 SLP097 T10671111

10-Day Weather Forecast

Almanac

Astronomy

Feb. 10, 2016 Rise Set
Actual Time
Civil Twilight
Nautical Twilight
Astronomical Twilight
Moon
Length of Visible Light
Length of Day
Tomorrow will be .
, % of the Moon is Illuminated

Today's Extremes

State Highs State Lows

Community

WunderPhotos

Upload Photos

1,891,826 photos uploaded!

WunderBlog® & News

Nearby

Air Quality

  Air Quality AQ Index Pollutant
Not available.

Snow Depth

Station Depth Elevation

Earthquake Activity

City Distance Mag. Time & Date
Minimum magnitude displayed is 2.5.

Coastal Water Temperatures

Place Temperature

Stations

Nearby Weather Stations

Station Location Temp. Windchill Dew Point Humidity Wind Precip. Elev Updated Type
                   

Watches & Warnings

There are currently no watches in effect.